Estación municipal de Roda de Ter (Osona, Plana de Vic)

Consulta los datos en tiempo real de la estación municipal de Roda de Ter





Hora UTC 13:10
Temperatura 39.0 ºC
Humedad 12.1 %
Pluja 0.0 mm
Velocidad viento 20.9 km/h
Dirección viento SW

Webcam

Datos diarios 2026-09-06



Hora UTC (invierno +1h; verano +2h)
Temperatura (ºC) Humedad (%) Velocidad viento (km/h) Precipitación (mm)
Hora UTC Aire Humedad Vel. Dir. Vel. Max Dir. Intent. máx 5 min.
00:05 18.8 73.9 0.0 ENE 0.0 ENE 0.0
00:10 18.9 72.9 0.3 ENE 2.5 ENE 0.0
00:15 19.1 71.9 0.2 ENE 1.4 ENE 0.0
00:20 18.9 73.6 0.1 NE 1.4 NE 0.0
00:25 18.8 73.2 0.9 ENE 2.1 ENE 0.0
00:30 18.6 74.1 0.1 ENE 1.4 ENE 0.0
00:35 18.5 74.1 1.0 ENE 1.8 ENE 0.0
00:40 18.7 73.1 1.5 ENE 2.8 ENE 0.0
00:45 18.7 73.7 0.6 ENE 2.5 ENE 0.0
00:50 18.6 73.8 0.8 ENE 2.5 NE 0.0
00:55 18.5 74.7 2.3 NE 4.2 NE 0.0
01:00 18.4 74.4 2.9 NE 4.2 NE 0.0
01:05 18.4 74.1 0.5 NE 2.5 NE 0.0
01:10 18.3 75.0 0.0 NNE 0.0 NE 0.0
01:15 18.3 75.8 0.0 NNE 0.0 NE 0.0
01:20 18.5 75.0 0.0 NNE 0.0 NE 0.0
01:25 18.9 72.1 1.0 ENE 3.2 ENE 0.0
01:30 18.8 72.4 0.6 ENE 3.2 ENE 0.0
01:35 18.5 74.5 0.0 NNE 0.0 ENE 0.0
01:40 18.1 76.4 0.0 NNE 0.0 ENE 0.0
01:45 18.0 78.0 0.0 NNE 0.0 ENE 0.0
01:50 18.3 78.1 0.0 NNE 0.0 ENE 0.0
01:55 18.2 76.7 0.0 NNE 0.0 ENE 0.0
02:00 17.9 81.7 0.0 NNE 0.0 ENE 0.0
02:05 17.7 81.7 0.0 NNE 0.0 ENE 0.0
02:10 17.4 82.5 0.0 NNE 0.0 ENE 0.0
02:15 17.5 82.1 0.0 ENE 1.1 ENE 0.0
02:20 17.4 82.2 0.8 ENE 2.5 ENE 0.0
02:25 17.4 81.6 3.3 NE 4.9 NE 0.0
02:30 17.1 82.7 2.3 NE 4.6 NE 0.0
02:35 16.9 84.0 2.3 NE 3.9 NE 0.0
02:40 17.0 83.9 2.7 NE 3.5 NE 0.0
02:45 17.2 82.7 2.5 NE 3.9 NE 0.0
02:50 17.1 83.6 1.5 NE 2.8 NE 0.0
02:55 16.9 84.4 0.6 ENE 1.8 ENE 0.0
03:00 16.9 84.5 0.0 NNE 0.0 ENE 0.0
03:05 17.0 84.3 0.0 NNE 0.0 ENE 0.0
03:10 17.1 83.9 0.0 NNE 0.0 ENE 0.0
03:15 17.3 84.3 0.1 ENE 1.1 ENE 0.0
03:20 17.1 84.5 0.0 ENE 1.1 ENE 0.0
03:25 17.0 84.6 0.0 NNE 0.0 ENE 0.0
03:30 16.8 84.6 0.0 NNE 0.0 ENE 0.0
03:35 16.9 84.6 0.0 NNE 0.0 ENE 0.0
03:40 16.7 84.9 0.0 NNE 0.0 ENE 0.0
03:45 16.6 85.0 1.3 NE 2.5 NE 0.0
03:50 16.2 85.6 1.2 NE 2.1 NE 0.0
03:55 16.1 85.8 0.0 NE 1.4 NE 0.0
04:00 16.1 86.2 0.1 NE 1.4 NE 0.0
04:05 16.0 86.2 0.0 NNE 0.0 NE 0.0
04:10 16.0 86.2 0.1 NE 1.4 NE 0.0
04:15 16.0 86.1 2.0 ENE 3.5 ENE 0.0
04:20 16.1 85.8 1.4 ENE 2.5 ENE 0.0
04:25 16.0 85.8 0.4 ENE 1.8 ENE 0.0
04:30 15.8 86.1 0.0 NNE 0.0 ENE 0.0
04:35 15.6 86.9 0.0 NNE 0.0 ENE 0.0
04:40 15.6 87.9 0.0 NNE 0.0 ENE 0.0
04:45 15.5 87.7 1.5 ENE 2.5 ENE 0.0
04:50 15.6 87.1 1.1 ENE 2.1 ENE 0.0
04:55 15.3 87.3 0.7 NE 2.1 NE 0.0
05:00 15.1 88.1 0.1 NE 1.1 NE 0.0
05:05 15.6 86.7 0.0 NNE 0.0 NE 0.0
05:10 15.5 86.9 0.0 NNE 0.0 NE 0.0
05:15 15.6 86.9 0.1 NE 1.1 NE 0.0
05:20 15.5 86.6 0.0 NE 1.1 NE 0.0
05:25 15.2 87.3 0.4 NE 1.8 NE 0.0
05:30 15.3 87.4 1.8 NE 3.2 NE 0.0
05:35 15.4 87.1 1.8 NE 2.5 NE 0.0
05:40 15.5 86.9 0.4 ENE 2.5 NE 0.0
05:45 15.4 87.0 0.0 NNE 0.0 ENE 0.0
05:50 15.2 87.5 0.0 NNE 0.0 ENE 0.0
05:55 15.4 87.5 0.0 NNE 0.0 ENE 0.0
06:00 15.6 86.8 0.0 NNE 0.0 ENE 0.0
06:05 15.9 86.4 0.5 ENE 2.5 NE 0.0
06:10 16.1 85.7 1.0 NE 1.8 NE 0.0
06:15 16.1 86.1 0.4 NE 1.8 NE 0.0
06:20 16.4 86.3 1.3 ENE 2.5 ENE 0.0
06:25 16.7 85.6 0.1 ENE 1.8 ENE 0.0
06:30 16.8 85.3 0.0 NNE 0.0 ENE 0.0
06:35 17.0 84.9 0.0 NNE 0.0 ENE 0.0
06:40 17.3 83.8 0.0 NNE 0.0 ENE 0.0
06:45 17.6 82.5 0.0 NNE 0.0 ENE 0.0
06:50 17.9 82.9 0.0 NNE 0.0 ENE 0.0
06:55 18.3 82.6 0.0 NNE 0.0 ENE 0.0
07:00 18.6 81.0 0.0 NE 1.1 NE 0.0
07:05 18.9 80.1 0.0 NNE 0.0 NE 0.0
07:10 19.1 75.6 0.7 ENE 2.8 ENE 0.0
07:15 19.3 72.4 0.0 ENE 1.1 ENE 0.0
07:20 19.5 70.7 0.5 ENE 2.8 ENE 0.0
07:25 19.7 69.5 0.0 NNE 0.0 ENE 0.0
07:30 19.9 69.6 0.0 ENE 1.1 ENE 0.0
07:35 20.2 68.7 0.9 ENE 3.2 ENE 0.0
07:40 20.4 68.1 0.0 ENE 1.1 ENE 0.0
07:45 20.7 67.1 0.3 NE 2.1 NE 0.0
07:50 21.0 65.8 0.3 N 2.8 NNE 0.0
07:55 21.4 63.9 2.0 W 5.6 W 0.0
08:00 21.6 63.5 4.7 W 6.4 W 0.0
08:05 21.8 62.5 5.7 WSW 8.8 SW 0.0
08:10 22.1 61.9 3.5 SW 6.7 WSW 0.0
08:15 22.4 60.7 3.3 SW 6.7 WSW 0.0
08:20 22.7 59.7 2.3 SW 4.9 SW 0.0
08:25 23.1 58.9 3.1 WSW 7.8 SW 0.0
08:30 23.9 57.1 2.6 W 6.0 WSW 0.0
08:35 24.2 56.3 1.4 W 4.6 WSW 0.0
08:40 24.3 55.6 0.1 W 1.8 W 0.0
08:45 24.8 53.7 0.4 WNW 3.2 WNW 0.0
08:50 24.9 52.5 0.7 WNW 3.5 WNW 0.0
08:55 25.2 51.4 1.4 WNW 5.6 WSW 0.0
09:00 26.0 49.0 4.5 WSW 7.1 WNW 0.0
09:05 26.5 47.8 2.6 W 7.4 W 0.0
09:10 26.8 46.8 3.6 WSW 5.6 WSW 0.0
09:15 27.2 45.6 3.2 SW 8.1 SW 0.0
09:20 27.5 45.2 3.2 NW 7.4 W 0.0
09:25 27.8 44.7 1.0 NW 4.9 W 0.0
09:30 28.2 43.6 1.4 N 4.2 S 0.0
09:35 28.3 43.2 3.5 WNW 6.4 W 0.0
09:40 28.7 42.6 2.0 WSW 4.9 WSW 0.0
09:45 29.3 41.6 4.4 WSW 7.1 WNW 0.0
09:50 29.5 41.0 2.6 W 6.4 W 0.0
09:55 29.8 39.9 5.6 WSW 10.2 WSW 0.0
10:00 30.1 39.7 4.0 W 7.8 W 0.0
10:05 30.7 38.1 3.7 WSW 9.2 WSW 0.0
10:10 31.0 37.4 3.5 WSW 6.4 SW 0.0
10:15 31.3 36.6 2.6 NNW 4.9 W 0.0
10:20 31.3 35.5 1.1 NNW 3.2 WNW 0.0
10:25 32.1 32.1 0.7 W 2.8 W 0.0
10:30 32.7 30.2 0.1 NW 1.8 NW 0.0
10:35 33.6 28.7 0.9 NE 3.5 NE 0.0
10:40 33.7 28.6 3.3 W 6.4 W 0.0
10:45 33.9 27.9 1.2 SSW 4.2 NW 0.0
10:50 34.2 27.7 4.0 WNW 7.1 W 0.0
10:55 34.5 26.6 1.7 W 4.9 SW 0.0
11:00 34.5 25.9 1.8 WNW 5.3 NW 0.0
11:05 35.1 25.8 2.4 NW 6.4 WSW 0.0
11:10 35.7 23.4 3.4 SW 7.1 WSW 0.0
11:15 35.3 24.4 1.7 ENE 7.4 SW 0.0
11:20 36.5 22.4 4.5 WSW 8.1 W 0.0
11:25 36.7 22.2 5.6 WSW 10.9 SW 0.0
11:30 36.2 21.9 4.7 SW 8.8 W 0.0
11:35 36.6 20.6 4.5 WSW 9.9 WSW 0.0
11:40 37.0 20.5 5.4 WSW 11.6 SSW 0.0
11:45 37.4 18.5 6.7 SW 13.4 SW 0.0
11:50 37.6 17.5 6.5 WSW 15.5 SW 0.0
11:55 38.0 17.2 5.7 SW 13.4 SW 0.0
12:00 38.4 16.8 3.7 SSE 7.8 SW 0.0
12:05 38.6 16.2 7.6 WSW 18.7 SW 0.0
12:10 38.6 15.1 7.8 SSW 18.4 SW 0.0
12:15 38.6 14.9 7.8 WSW 18.4 W 0.0
12:20 38.9 12.6 12.1 WSW 32.5 SSW 0.0
12:25 39.2 12.0 15.9 SW 28.2 SW 0.0
12:30 39.5 12.4 17.8 W 27.5 SW 0.0
12:35 40.0 12.1 13.9 WSW 22.9 WSW 0.0
12:40 39.5 12.1 14.3 WSW 21.9 WSW 0.0
12:45 39.2 12.3 13.9 SW 22.2 WSW 0.0
12:50 39.3 12.2 22.0 W 34.2 WSW 0.0
12:55 39.6 12.1 16.9 WSW 27.2 SSW 0.0
13:00 39.4 11.9 21.0 SW 30.7 WSW 0.0
13:05 39.2 12.1 19.1 SW 32.8 WSW 0.0
13:10 39.0 12.1 20.9 SW 36.3 SW 0.0
Máxima 40.0 88.1 22.0 W 36.3 SW 0.0
Mínima 15.1 11.9
Total 0.0